createdAt,value
2023-04-22T00:00:09.218Z,2.88
2023-04-22T00:02:37.477Z,2.70
2023-04-22T00:05:06.650Z,2.83
2023-04-22T00:07:34.317Z,3.72
2023-04-22T00:10:01.249Z,3.33
2023-04-22T00:12:28.202Z,3.28
2023-04-22T00:14:55.134Z,3.00
2023-04-22T00:17:22.101Z,3.42
2023-04-22T00:19:49.075Z,3.03
2023-04-22T00:22:16.165Z,4.03
2023-04-22T00:24:43.229Z,3.25
2023-04-22T00:27:10.180Z,3.42
2023-04-22T00:29:37.342Z,3.50
2023-04-22T00:32:04.540Z,3.75
2023-04-22T00:34:31.473Z,3.63
2023-04-22T00:36:58.424Z,4.30
2023-04-22T00:39:25.363Z,4.07
2023-04-22T00:41:52.822Z,4.05
2023-04-22T00:44:19.972Z,3.55
2023-04-22T00:46:47.746Z,3.88
2023-04-22T00:49:16.121Z,4.97
2023-04-22T00:51:43.060Z,4.78
2023-04-22T00:54:10.056Z,4.97
2023-04-22T00:56:39.178Z,5.80
2023-04-22T00:59:06.131Z,5.72
2023-04-22T01:01:33.530Z,5.70
2023-04-22T01:04:01.386Z,5.88
2023-04-22T01:06:32.398Z,5.70
2023-04-22T01:08:59.706Z,5.47
2023-04-22T01:11:26.886Z,5.65
2023-04-22T01:13:54.001Z,5.50
2023-04-22T01:16:22.250Z,6.50
2023-04-22T01:18:49.303Z,6.18
2023-04-22T01:21:17.178Z,5.57
2023-04-22T01:23:44.256Z,6.85
2023-04-22T01:26:11.610Z,7.53
2023-04-22T01:28:38.790Z,7.07
2023-04-22T01:31:05.840Z,7.18
2023-04-22T01:33:33.638Z,8.05
2023-04-22T01:36:00.972Z,7.50
2023-04-22T01:38:28.973Z,7.10
2023-04-22T01:40:56.426Z,8.35
2023-04-22T01:43:23.795Z,8.15
2023-04-22T01:45:50.759Z,9.73
2023-04-22T01:48:17.772Z,8.10
2023-04-22T01:50:45.051Z,8.20
2023-04-22T01:53:11.912Z,7.32
2023-04-22T01:55:39.399Z,7.95
2023-04-22T01:58:06.306Z,8.25
2023-04-22T02:00:33.288Z,7.55
2023-04-22T02:03:00.642Z,8.00
2023-04-22T02:05:28.261Z,8.57
2023-04-22T02:07:55.388Z,7.68
2023-04-22T02:10:22.564Z,8.50
2023-04-22T02:12:49.540Z,8.82
2023-04-22T02:15:16.658Z,7.97
2023-04-22T02:17:43.708Z,8.23
2023-04-22T02:20:14.244Z,8.73
2023-04-22T02:22:43.711Z,8.57
2023-04-22T02:25:12.325Z,8.23
2023-04-22T02:27:39.533Z,9.15
2023-04-22T02:30:07.558Z,9.10
2023-04-22T02:32:36.902Z,10.27
2023-04-22T02:35:05.387Z,7.97
2023-04-22T02:37:32.326Z,9.10
2023-04-22T02:39:59.221Z,9.77
2023-04-22T02:42:26.126Z,9.88
2023-04-22T02:44:52.983Z,10.40
2023-04-22T02:47:20.052Z,11.70
2023-04-22T02:49:46.894Z,10.18
2023-04-22T02:52:13.840Z,10.75
2023-04-22T02:54:40.715Z,10.05
2023-04-22T02:57:07.773Z,9.70
2023-04-22T02:59:36.051Z,10.38
2023-04-22T03:02:05.242Z,11.65
2023-04-22T03:04:33.801Z,10.95
2023-04-22T03:07:00.787Z,10.13
2023-04-22T03:09:27.659Z,10.48
2023-04-22T03:11:56.334Z,10.68
2023-04-22T03:14:23.215Z,10.45
2023-04-22T03:16:50.379Z,10.18
2023-04-22T03:19:17.277Z,8.85
2023-04-22T03:21:44.197Z,9.50
2023-04-22T03:24:11.101Z,10.65
2023-04-22T03:26:38.024Z,10.85
2023-04-22T03:29:04.969Z,12.25
2023-04-22T03:31:31.870Z,11.25
2023-04-22T03:33:58.883Z,11.75
2023-04-22T03:36:27.462Z,13.25
2023-04-22T03:38:54.392Z,15.15
2023-04-22T03:41:21.249Z,16.50
2023-04-22T03:43:48.304Z,19.92
2023-04-22T03:46:16.120Z,18.75
2023-04-22T03:48:43.139Z,16.60
2023-04-22T03:51:10.107Z,13.98
2023-04-22T03:53:37.004Z,12.95
2023-04-22T03:56:04.327Z,12.38
2023-04-22T03:58:31.279Z,12.77
2023-04-22T04:00:58.178Z,13.40
2023-04-22T04:03:26.572Z,12.23
2023-04-22T04:05:54.970Z,12.18
2023-04-22T04:08:22.206Z,11.52
2023-04-22T04:10:49.101Z,11.05
2023-04-22T04:13:15.961Z,11.40
2023-04-22T04:15:43.129Z,10.50
2023-04-22T04:18:11.722Z,11.75
2023-04-22T04:20:38.745Z,10.35
2023-04-22T04:23:05.627Z,9.85
2023-04-22T04:25:37.826Z,9.90
2023-04-22T04:28:11.267Z,10.27
2023-04-22T04:30:38.448Z,9.77
2023-04-22T04:33:07.473Z,9.70
2023-04-22T04:35:36.048Z,10.07
2023-04-22T04:38:03.000Z,10.23
2023-04-22T04:40:30.682Z,11.23
2023-04-22T04:42:57.813Z,10.05
2023-04-22T04:45:25.106Z,9.80
2023-04-22T04:47:55.660Z,9.60
2023-04-22T04:50:23.039Z,10.57
2023-04-22T04:52:50.159Z,9.80
2023-04-22T04:55:18.045Z,9.02
2023-04-22T04:57:45.769Z,9.93
2023-04-22T05:00:16.403Z,9.75
2023-04-22T05:02:43.552Z,9.18
2023-04-22T05:05:10.814Z,9.07
2023-04-22T05:07:37.822Z,10.55
2023-04-22T05:10:05.149Z,8.80
2023-04-22T05:12:32.065Z,7.70
2023-04-22T05:14:59.000Z,8.55
2023-04-22T05:17:26.104Z,8.50
2023-04-22T05:19:53.101Z,8.52
2023-04-22T05:22:20.641Z,8.75
2023-04-22T05:24:47.640Z,8.27
2023-04-22T05:27:14.604Z,9.05
2023-04-22T05:29:42.018Z,8.20
2023-04-22T05:32:09.302Z,8.25
2023-04-22T05:34:36.467Z,7.40
2023-04-22T05:37:04.333Z,7.05
2023-04-22T05:39:31.381Z,7.55
2023-04-22T05:41:58.839Z,7.47
2023-04-22T05:44:25.822Z,6.82
2023-04-22T05:46:52.733Z,7.25
2023-04-22T05:49:19.736Z,7.18
2023-04-22T05:51:46.681Z,7.07
2023-04-22T05:54:13.621Z,7.80
2023-04-22T05:56:40.716Z,6.93
2023-04-22T05:59:07.921Z,7.38
2023-04-22T06:01:38.649Z,7.35
2023-04-22T06:04:06.561Z,6.30
2023-04-22T06:06:33.812Z,7.35
2023-04-22T06:09:00.883Z,6.00
2023-04-22T06:11:28.533Z,6.63
2023-04-22T06:13:55.472Z,5.40
2023-04-22T06:16:23.447Z,5.90
2023-04-22T06:18:50.455Z,5.55
2023-04-22T06:21:17.440Z,4.80
2023-04-22T06:23:44.383Z,2.95
2023-04-22T06:26:11.656Z,2.63
2023-04-22T06:28:38.717Z,1.80
2023-04-22T06:31:05.829Z,1.45
2023-04-22T06:33:32.746Z,1.65
2023-04-22T06:36:00.221Z,1.60
2023-04-22T06:38:27.121Z,1.40
2023-04-22T06:40:54.011Z,1.45
2023-04-22T06:43:21.360Z,1.85
2023-04-22T06:45:48.314Z,1.55
2023-04-22T06:48:15.275Z,2.10
2023-04-22T06:50:42.198Z,2.25
2023-04-22T06:53:10.119Z,2.85
2023-04-22T06:55:37.202Z,2.22
2023-04-22T06:58:04.171Z,3.83
2023-04-22T07:00:31.071Z,2.22
2023-04-22T07:02:58.388Z,2.20
2023-04-22T07:05:25.521Z,2.60
2023-04-22T07:07:52.562Z,2.60
2023-04-22T07:10:19.562Z,1.30
2023-04-22T07:12:46.555Z,2.00
2023-04-22T07:15:13.536Z,2.42
2023-04-22T07:17:40.738Z,1.60
2023-04-22T07:20:08.461Z,1.60
2023-04-22T07:22:35.421Z,2.55
2023-04-22T07:25:02.608Z,1.80
2023-04-22T07:27:29.579Z,1.67
2023-04-22T07:29:56.508Z,1.63
2023-04-22T07:32:23.488Z,2.28
2023-04-22T07:34:50.465Z,1.70
2023-04-22T07:37:17.380Z,1.80
2023-04-22T07:39:44.300Z,2.05
2023-04-22T07:42:11.937Z,2.72
2023-04-22T07:44:39.619Z,1.70
2023-04-22T07:47:08.651Z,2.03
2023-04-22T07:49:35.718Z,1.40
2023-04-22T07:52:02.750Z,1.60
2023-04-22T07:54:29.649Z,1.60
2023-04-22T07:56:58.417Z,1.70
2023-04-22T07:59:25.746Z,2.10
2023-04-22T08:01:52.698Z,1.80
2023-04-22T08:04:24.407Z,1.98
2023-04-22T08:06:51.549Z,1.90
2023-04-22T08:09:18.445Z,1.70
2023-04-22T08:11:45.414Z,1.80
2023-04-22T08:14:12.349Z,1.65
2023-04-22T08:16:40.526Z,1.80
2023-04-22T08:19:07.501Z,1.30
2023-04-22T08:21:37.372Z,1.98
2023-04-22T08:24:04.406Z,1.50
2023-04-22T08:30:19.989Z,1.88
2023-04-22T08:32:47.651Z,1.50
2023-04-22T08:35:14.725Z,1.33
2023-04-22T08:37:42.322Z,1.20
2023-04-22T08:40:09.651Z,1.20
2023-04-22T08:42:37.831Z,1.10
2023-04-22T08:45:05.924Z,1.10
2023-04-22T08:47:35.682Z,1.13
2023-04-22T08:50:04.528Z,1.10
2023-04-22T08:52:31.890Z,1.05
2023-04-22T08:54:59.268Z,1.20
2023-04-22T08:57:26.908Z,1.30
2023-04-22T08:59:55.746Z,1.10
2023-04-22T09:02:24.526Z,1.00
2023-04-22T09:04:56.092Z,1.48
2023-04-22T09:07:28.405Z,0.90
2023-04-22T09:09:56.124Z,0.98
2023-04-22T09:12:24.892Z,1.42
2023-04-22T09:14:53.096Z,1.30
2023-04-22T09:17:33.484Z,1.20
2023-04-22T09:20:06.281Z,1.20
2023-04-22T09:22:45.571Z,0.90
2023-04-22T09:25:20.085Z,1.00
2023-04-22T09:27:51.790Z,1.00
2023-04-22T09:30:40.074Z,1.10
2023-04-22T09:33:07.963Z,1.30
2023-04-22T09:35:40.107Z,1.50
2023-04-22T09:38:09.200Z,1.05
2023-04-22T09:40:37.534Z,1.30
2023-04-22T09:43:07.434Z,0.85
2023-04-22T09:45:41.611Z,1.30
2023-04-22T09:48:17.640Z,1.60
2023-04-22T09:50:46.535Z,1.00
2023-04-22T09:53:16.704Z,0.85
2023-04-22T09:55:55.695Z,1.30
2023-04-22T09:58:27.818Z,1.10
2023-04-22T10:00:58.126Z,0.82
2023-04-22T10:03:25.155Z,0.93
2023-04-22T10:05:52.426Z,0.90
2023-04-22T10:08:19.490Z,1.20
2023-04-22T10:10:46.976Z,1.10
2023-04-22T10:13:14.059Z,1.30
2023-04-22T10:15:51.674Z,1.00
2023-04-22T10:18:28.879Z,1.00
2023-04-22T10:20:57.290Z,0.77
2023-04-22T10:23:25.261Z,0.90
2023-04-22T10:25:55.030Z,0.90
2023-04-22T10:28:23.435Z,1.30
2023-04-22T10:30:52.046Z,1.30
2023-04-22T10:33:21.908Z,0.73
2023-04-22T10:36:10.002Z,0.90
2023-04-22T10:38:42.349Z,0.88
2023-04-22T10:41:16.048Z,1.17
2023-04-22T10:43:48.133Z,0.70
2023-04-22T10:46:34.772Z,0.90
2023-04-22T10:49:11.844Z,0.70
2023-04-22T10:51:50.484Z,0.93
2023-04-22T10:54:32.193Z,0.93
2023-04-22T10:57:13.047Z,0.90
2023-04-22T10:59:54.040Z,1.20
2023-04-22T11:02:22.770Z,0.93
2023-04-22T11:04:50.689Z,0.80
2023-04-22T11:07:26.887Z,0.65
2023-04-22T11:10:04.459Z,0.73
2023-04-22T11:12:39.959Z,1.10
2023-04-22T11:15:11.653Z,0.90
2023-04-22T11:17:40.325Z,0.90
2023-04-22T11:20:08.709Z,0.80
2023-04-22T11:22:36.788Z,1.00
2023-04-22T11:25:05.678Z,2.75
2023-04-22T11:27:33.153Z,0.90
2023-04-22T11:30:09.038Z,1.02
2023-04-22T11:32:37.950Z,1.20
2023-04-22T11:35:10.284Z,1.42
2023-04-22T11:37:47.473Z,0.90
2023-04-22T11:42:56.246Z,1.00
2023-04-22T11:45:23.872Z,1.00
2023-04-22T11:47:52.588Z,0.90
2023-04-22T11:50:29.230Z,0.98
2023-04-22T11:53:23.902Z,0.90
2023-04-22T11:55:52.281Z,0.90
2023-04-22T11:58:25.506Z,0.90
2023-04-22T12:00:53.881Z,0.90
2023-04-22T12:03:29.003Z,1.20
2023-04-22T12:06:01.581Z,1.27
2023-04-22T12:08:42.425Z,0.90
2023-04-22T12:11:11.600Z,1.05
2023-04-22T12:13:38.493Z,1.23
2023-04-22T12:16:10.168Z,0.90
2023-04-22T12:18:48.008Z,1.17
2023-04-22T12:21:17.520Z,1.00
2023-04-22T12:23:48.938Z,1.25
2023-04-22T12:26:17.551Z,1.20
2023-04-22T12:28:45.641Z,1.13
2023-04-22T12:31:14.816Z,1.30
2023-04-22T12:33:42.141Z,1.30
2023-04-22T12:36:09.685Z,1.42
2023-04-22T12:38:37.251Z,1.50
2023-04-22T12:41:05.527Z,1.98
2023-04-22T12:43:36.468Z,1.60
2023-04-22T12:46:04.876Z,1.63
2023-04-22T12:48:32.589Z,1.50
2023-04-22T12:51:00.279Z,1.42
2023-04-22T12:53:28.210Z,1.45
2023-04-22T12:55:55.911Z,1.20
2023-04-22T12:58:22.941Z,1.23
2023-04-22T13:00:49.839Z,1.55
2023-04-22T13:03:16.988Z,1.17
2023-04-22T13:05:45.419Z,1.92
2023-04-22T13:08:12.314Z,1.92
2023-04-22T13:10:39.363Z,1.95
2023-04-22T13:15:39.142Z,1.70
2023-04-22T13:18:06.357Z,1.80
2023-04-22T13:20:33.434Z,1.63
2023-04-22T13:23:02.294Z,1.75
2023-04-22T13:25:29.323Z,1.45
2023-04-22T13:27:56.241Z,1.50
2023-04-22T13:30:23.204Z,1.42
2023-04-22T13:32:50.139Z,1.70
2023-04-22T13:35:18.592Z,2.22
2023-04-22T13:37:46.450Z,1.67
2023-04-22T13:40:13.472Z,1.63
2023-04-22T13:42:40.568Z,1.65
2023-04-22T13:45:08.375Z,2.03
2023-04-22T13:47:35.518Z,1.70
2023-04-22T13:50:02.687Z,1.42
2023-04-22T13:52:29.649Z,2.08
2023-04-22T13:54:56.579Z,1.58
2023-04-22T13:57:23.557Z,1.90
2023-04-22T13:59:50.942Z,1.90
2023-04-22T14:02:18.229Z,1.80
2023-04-22T14:04:45.361Z,2.25
2023-04-22T14:07:13.188Z,1.42
2023-04-22T14:09:40.184Z,1.73
2023-04-22T14:12:08.127Z,1.48
2023-04-22T14:14:35.116Z,1.70
2023-04-22T14:17:02.309Z,1.45
2023-04-22T14:19:30.535Z,1.20
2023-04-22T14:21:58.211Z,1.38
2023-04-22T14:24:25.599Z,1.48
2023-04-22T14:26:52.931Z,1.75
2023-04-22T14:29:20.134Z,1.73
2023-04-22T14:31:47.133Z,1.38
2023-04-22T14:34:14.009Z,1.80
2023-04-22T14:36:41.053Z,1.77
2023-04-22T14:39:07.962Z,2.10
2023-04-22T14:41:35.201Z,2.13
2023-04-22T14:44:02.183Z,2.00
2023-04-22T14:46:30.580Z,2.20
2023-04-22T14:48:57.522Z,1.92
2023-04-22T14:51:24.716Z,1.77
2023-04-22T14:53:51.718Z,2.10
2023-04-22T14:56:19.037Z,2.33
2023-04-22T14:58:46.636Z,2.67
2023-04-22T15:01:13.660Z,2.10
2023-04-22T15:03:41.075Z,2.50
2023-04-22T15:06:08.343Z,2.42
2023-04-22T15:08:35.567Z,2.30
2023-04-22T15:11:02.633Z,2.20
2023-04-22T15:13:29.542Z,2.47
2023-04-22T15:15:57.353Z,2.40
2023-04-22T15:18:25.078Z,2.08
2023-04-22T15:20:51.944Z,2.13
2023-04-22T15:23:18.849Z,2.08
2023-04-22T15:25:46.067Z,2.20
2023-04-22T15:28:12.998Z,2.00
2023-04-22T15:30:40.878Z,2.33
2023-04-22T15:33:07.928Z,2.35
2023-04-22T15:35:34.889Z,2.50
2023-04-22T15:38:03.049Z,2.30
2023-04-22T15:40:30.137Z,2.30
2023-04-22T15:42:57.080Z,2.20
2023-04-22T15:45:24.063Z,2.70
2023-04-22T15:47:52.514Z,2.25
2023-04-22T15:50:20.233Z,3.15
2023-04-22T15:52:47.131Z,2.80
2023-04-22T15:55:14.124Z,2.10
2023-04-22T15:57:41.048Z,2.28
2023-04-22T16:00:12.450Z,2.25
2023-04-22T16:02:41.592Z,2.20
2023-04-22T16:05:09.112Z,1.85
2023-04-22T16:07:36.248Z,1.63
2023-04-22T16:10:03.253Z,2.10
2023-04-22T16:12:31.983Z,2.42
2023-04-22T16:15:00.411Z,2.28
2023-04-22T16:17:27.558Z,2.30
2023-04-22T16:19:55.233Z,2.10
2023-04-22T16:22:22.173Z,2.70
2023-04-22T16:24:49.329Z,2.08
2023-04-22T16:27:18.513Z,2.28
2023-04-22T16:29:45.931Z,2.30
2023-04-22T16:32:12.979Z,3.92
2023-04-22T16:34:40.150Z,2.88
2023-04-22T16:37:08.576Z,2.47
2023-04-22T16:39:35.629Z,2.70
2023-04-22T16:42:03.178Z,2.47
2023-04-22T16:44:30.175Z,2.40
2023-04-22T16:46:57.209Z,2.88
2023-04-22T16:49:24.163Z,2.72
2023-04-22T16:51:51.165Z,3.47
2023-04-22T16:54:18.153Z,2.80
2023-04-22T16:56:45.063Z,3.20
2023-04-22T16:59:12.027Z,2.80
2023-04-22T17:01:40.910Z,3.10
2023-04-22T17:04:08.879Z,3.33
2023-04-22T17:06:37.730Z,3.20
2023-04-22T17:09:06.859Z,3.10
2023-04-22T17:11:33.820Z,3.03
2023-04-22T17:14:01.016Z,2.70
2023-04-22T17:16:28.183Z,2.30
2023-04-22T17:18:55.338Z,2.58
2023-04-22T17:21:25.391Z,2.60
2023-04-22T17:23:52.636Z,3.03
2023-04-22T17:26:19.526Z,3.25
2023-04-22T17:28:46.559Z,3.63
2023-04-22T17:31:13.640Z,3.80
2023-04-22T17:33:41.313Z,2.95
2023-04-22T17:36:08.393Z,4.03
2023-04-22T17:38:35.805Z,3.40
2023-04-22T17:41:02.795Z,4.78
2023-04-22T17:43:29.891Z,3.50
2023-04-22T17:45:57.014Z,4.70
2023-04-22T17:48:23.959Z,6.50
2023-04-22T17:50:51.080Z,5.72
2023-04-22T17:53:18.066Z,7.22
2023-04-22T17:55:45.014Z,5.85
2023-04-22T17:58:12.152Z,5.57
2023-04-22T18:00:39.750Z,5.50
2023-04-22T18:03:06.916Z,7.25
2023-04-22T18:05:34.100Z,6.90
2023-04-22T18:08:02.948Z,5.68
2023-04-22T18:10:30.667Z,6.35
2023-04-22T18:12:57.875Z,7.15
2023-04-22T18:15:24.810Z,6.78
2023-04-22T18:17:52.049Z,8.35
2023-04-22T18:20:19.938Z,8.18
2023-04-22T18:22:48.620Z,5.80
2023-04-22T18:25:16.562Z,5.78
2023-04-22T18:27:44.338Z,6.72
2023-04-22T18:30:11.666Z,6.50
2023-04-22T18:32:38.972Z,6.40
2023-04-22T18:35:06.467Z,5.35
2023-04-22T18:37:34.988Z,6.05
2023-04-22T18:40:02.835Z,6.78
2023-04-22T18:42:30.361Z,6.32
2023-04-22T18:44:57.457Z,6.43
2023-04-22T18:47:24.541Z,9.32
2023-04-22T18:49:51.498Z,11.63
2023-04-22T18:52:18.749Z,14.48
2023-04-22T18:54:45.772Z,13.73
2023-04-22T18:57:13.200Z,13.98
2023-04-22T18:59:40.149Z,14.45
2023-04-22T19:02:07.133Z,14.52
2023-04-22T19:04:34.250Z,18.40
2023-04-22T19:07:01.210Z,22.50
2023-04-22T19:09:28.199Z,29.58
2023-04-22T19:11:55.925Z,27.67
2023-04-22T19:14:22.903Z,29.77
2023-04-22T19:16:49.894Z,33.33
2023-04-22T19:19:16.821Z,35.88
2023-04-22T19:21:43.948Z,37.63
2023-04-22T19:24:13.708Z,32.78
2023-04-22T19:26:41.439Z,35.88
2023-04-22T19:29:08.817Z,32.65
2023-04-22T19:31:35.869Z,34.70
2023-04-22T19:34:03.179Z,25.88
2023-04-22T19:36:30.123Z,24.33
2023-04-22T19:38:57.091Z,22.02
2023-04-22T19:41:24.734Z,22.35
2023-04-22T19:43:51.690Z,22.20
2023-04-22T19:46:18.648Z,21.55
2023-04-22T19:48:45.941Z,22.80
2023-04-22T19:51:13.303Z,23.95
2023-04-22T19:53:41.602Z,24.40
2023-04-22T19:56:12.043Z,23.13
2023-04-22T19:58:39.714Z,21.27
2023-04-22T20:01:06.860Z,21.25
2023-04-22T20:03:34.288Z,21.55
2023-04-22T20:06:01.868Z,23.50
2023-04-22T20:08:29.809Z,24.40
2023-04-22T20:10:58.419Z,22.40
2023-04-22T20:13:26.297Z,22.13
2023-04-22T20:15:53.563Z,22.35
2023-04-22T20:18:20.709Z,23.67
2023-04-22T20:20:49.180Z,24.35
2023-04-22T20:23:20.896Z,23.45
2023-04-22T20:25:49.021Z,23.95
2023-04-22T20:28:16.069Z,23.20
2023-04-22T20:30:43.348Z,22.80
2023-04-22T20:33:12.756Z,21.70
2023-04-22T20:35:41.570Z,21.83
2023-04-22T20:38:12.532Z,20.55
2023-04-22T20:40:40.455Z,19.48
2023-04-22T20:43:07.864Z,19.48
2023-04-22T20:45:35.257Z,18.70
2023-04-22T20:48:02.549Z,19.45
2023-04-22T20:50:33.554Z,19.30
2023-04-22T20:53:01.277Z,18.08
2023-04-22T20:55:28.268Z,18.40
2023-04-22T20:57:55.197Z,18.23
2023-04-22T21:00:22.490Z,16.80
2023-04-22T21:02:50.436Z,16.10
2023-04-22T21:05:17.996Z,17.55
2023-04-22T21:07:52.134Z,16.33
2023-04-22T21:10:22.648Z,19.30
2023-04-22T21:12:50.140Z,18.42
2023-04-22T21:15:17.526Z,17.92
2023-04-22T21:17:54.367Z,17.00
2023-04-22T21:20:24.426Z,15.50
2023-04-22T21:22:53.333Z,15.75
2023-04-22T21:25:22.252Z,15.18
2023-04-22T21:27:49.672Z,17.33
2023-04-22T21:30:17.179Z,20.23
2023-04-22T21:32:44.214Z,20.67
2023-04-22T21:35:11.416Z,24.60
2023-04-22T21:37:38.416Z,25.17
2023-04-22T21:40:09.664Z,26.13
2023-04-22T21:42:36.563Z,25.67
2023-04-22T21:45:04.506Z,19.75
2023-04-22T21:47:31.576Z,19.13
2023-04-22T21:49:58.485Z,17.35
2023-04-22T21:52:25.593Z,13.90
2023-04-22T21:54:52.485Z,12.80
2023-04-22T21:57:19.484Z,13.80
2023-04-22T21:59:46.347Z,12.60
2023-04-22T22:02:13.338Z,10.07
2023-04-22T22:04:40.669Z,8.68
2023-04-22T22:07:07.822Z,9.15
2023-04-22T22:09:34.908Z,10.18
2023-04-22T22:12:01.995Z,12.07
2023-04-22T22:14:28.942Z,11.27
2023-04-22T22:16:55.960Z,10.30
2023-04-22T22:19:23.927Z,8.70
2023-04-22T22:21:51.359Z,8.82
2023-04-22T22:24:18.338Z,8.48
2023-04-22T22:26:45.317Z,8.30
2023-04-22T22:29:15.653Z,8.02
2023-04-22T22:31:44.205Z,6.32
2023-04-22T22:34:11.462Z,6.57
2023-04-22T22:36:38.426Z,6.78
2023-04-22T22:39:05.451Z,5.78
2023-04-22T22:41:32.438Z,5.60
2023-04-22T22:43:59.415Z,5.30
2023-04-22T22:46:26.487Z,6.05
2023-04-22T22:48:53.576Z,5.70
2023-04-22T22:51:21.225Z,5.60
2023-04-22T22:53:48.153Z,5.20
2023-04-22T22:56:15.578Z,5.72
2023-04-22T22:58:42.543Z,6.20
2023-04-22T23:01:09.641Z,6.38
2023-04-22T23:03:37.230Z,7.25
2023-04-22T23:06:04.613Z,8.73
2023-04-22T23:08:31.555Z,9.25
2023-04-22T23:10:58.401Z,8.93
2023-04-22T23:13:25.294Z,9.20
2023-04-22T23:15:52.471Z,8.80
2023-04-22T23:18:19.537Z,8.15
2023-04-22T23:20:50.014Z,8.15
2023-04-22T23:23:18.185Z,8.55
2023-04-22T23:25:46.966Z,9.27
2023-04-22T23:28:14.194Z,8.98
2023-04-22T23:30:41.779Z,7.97
2023-04-22T23:33:12.526Z,8.55
2023-04-22T23:35:41.666Z,8.20
2023-04-22T23:38:11.117Z,8.60
2023-04-22T23:40:38.053Z,9.07
2023-04-22T23:43:04.985Z,11.23
2023-04-22T23:45:32.036Z,10.38
2023-04-22T23:47:58.978Z,13.60
2023-04-22T23:50:25.913Z,15.32
2023-04-22T23:52:52.865Z,14.40
2023-04-22T23:55:20.042Z,10.85
2023-04-22T23:57:47.223Z,10.00
